createdAt,value
2018-01-12T00:01:47.051Z,25.40
2018-01-12T00:04:17.043Z,27.20
2018-01-12T00:06:45.135Z,26.40
2018-01-12T00:09:13.155Z,23.87
2018-01-12T00:11:41.247Z,23.27
2018-01-12T00:14:20.831Z,24.17
2018-01-12T00:16:50.631Z,23.05
2018-01-12T00:19:23.580Z,19.45
2018-01-12T00:21:52.554Z,20.12
2018-01-12T00:24:22.591Z,19.50
2018-01-12T00:29:23.655Z,22.20
2018-01-12T00:32:01.711Z,20.10
2018-01-12T00:34:32.614Z,20.25
2018-01-12T00:37:04.291Z,19.67
2018-01-12T00:39:34.354Z,18.30
2018-01-12T00:42:02.647Z,18.70
2018-01-12T00:44:47.275Z,18.02
2018-01-12T00:47:22.399Z,16.95
2018-01-12T00:49:50.558Z,16.80
2018-01-12T00:52:20.158Z,17.98
2018-01-12T00:54:51.799Z,19.98
2018-01-12T00:57:20.994Z,16.95
2018-01-12T00:59:53.362Z,17.23
2018-01-12T01:02:21.510Z,18.50
2018-01-12T01:04:51.447Z,17.75
2018-01-12T01:07:20.328Z,18.60
2018-01-12T01:09:53.898Z,17.45
2018-01-12T01:12:24.066Z,18.02
2018-01-12T01:14:52.134Z,17.37
2018-01-12T01:17:22.370Z,17.85
2018-01-12T01:19:52.421Z,18.92
2018-01-12T01:22:34.450Z,17.77
2018-01-12T01:25:09.002Z,18.92
2018-01-12T01:27:43.474Z,19.23
2018-01-12T01:30:15.398Z,18.98
2018-01-12T01:32:43.453Z,18.92
2018-01-12T01:35:12.414Z,20.10
2018-01-12T01:37:47.258Z,22.10
2018-01-12T01:40:15.288Z,20.62
2018-01-12T01:42:47.862Z,19.45
2018-01-12T01:45:22.534Z,20.05
2018-01-12T01:47:51.494Z,21.25
2018-01-12T01:50:21.663Z,19.08
2018-01-12T01:53:01.626Z,19.83
2018-01-12T01:55:31.462Z,21.80
2018-01-12T01:57:59.574Z,19.98
2018-01-12T02:00:28.622Z,19.23
2018-01-12T02:02:59.321Z,19.85
2018-01-12T02:05:39.710Z,20.67
2018-01-12T02:08:09.941Z,21.37
2018-01-12T02:10:40.026Z,21.35
2018-01-12T02:13:08.062Z,22.13
2018-01-12T02:15:39.777Z,23.38
2018-01-12T02:18:18.030Z,22.45
2018-01-12T02:20:48.314Z,21.60
2018-01-12T02:23:22.036Z,23.55
2018-01-12T02:31:15.018Z,24.27
2018-01-12T02:33:50.430Z,24.45
2018-01-12T02:39:13.102Z,23.42
2018-01-12T02:41:41.889Z,24.40
2018-01-12T02:44:16.386Z,23.23
2018-01-12T02:46:50.901Z,23.05
2018-01-12T02:49:19.978Z,24.45
2018-01-12T03:02:05.119Z,25.98
2018-01-12T03:04:46.069Z,24.17
2018-01-12T03:07:27.530Z,24.08
2018-01-12T03:10:01.314Z,27.10
2018-01-12T03:12:31.390Z,26.77
2018-01-12T03:15:05.402Z,25.83
2018-01-12T03:17:39.253Z,23.77
2018-01-12T03:20:09.698Z,25.52
2018-01-12T03:22:45.765Z,24.15
2018-01-12T03:25:16.805Z,24.65
2018-01-12T03:27:44.849Z,26.70
2018-01-12T03:30:13.662Z,25.62
2018-01-12T03:32:42.826Z,25.42
2018-01-12T03:35:17.901Z,25.02
2018-01-12T03:37:47.650Z,25.12
2018-01-12T03:40:23.109Z,25.08
2018-01-12T03:42:52.369Z,21.87
2018-01-12T03:45:29.441Z,24.17
2018-01-12T03:48:07.353Z,26.15
2018-01-12T03:50:35.642Z,25.10
2018-01-12T03:56:07.070Z,23.52
2018-01-12T03:58:35.126Z,24.77
2018-01-12T04:01:05.149Z,23.05
2018-01-12T04:03:34.121Z,25.73
2018-01-12T04:06:08.809Z,24.37
2018-01-12T04:08:41.683Z,25.15
2018-01-12T04:11:10.661Z,27.27
2018-01-12T04:13:39.069Z,25.85
2018-01-12T04:16:19.614Z,25.25
2018-01-12T04:18:49.571Z,24.17
2018-01-12T04:21:21.121Z,25.25
2018-01-12T04:23:50.041Z,25.42
2018-01-12T04:26:25.121Z,26.10
2018-01-12T04:28:58.058Z,26.37
2018-01-12T04:31:45.705Z,24.67
2018-01-12T04:34:13.776Z,26.50
2018-01-12T04:36:42.837Z,27.17
2018-01-12T04:39:14.885Z,27.85
2018-01-12T04:41:44.641Z,26.10
2018-01-12T04:44:21.721Z,24.98
2018-01-12T04:49:47.125Z,25.83
2018-01-12T04:52:19.239Z,25.27
2018-01-12T04:54:56.409Z,25.67
2018-01-12T04:57:27.049Z,27.60
2018-01-12T04:59:55.105Z,23.95
2018-01-12T05:02:34.029Z,25.37
2018-01-12T05:05:04.006Z,24.50
2018-01-12T05:07:43.605Z,24.20
2018-01-12T05:10:15.341Z,23.73
2018-01-12T05:12:52.409Z,23.95
2018-01-12T05:15:23.733Z,24.67
2018-01-12T05:17:54.613Z,24.08
2018-01-12T05:23:32.354Z,25.70
2018-01-12T05:26:03.405Z,25.05
2018-01-12T05:28:41.266Z,26.92
2018-01-12T05:31:19.798Z,26.30
2018-01-12T05:33:51.785Z,29.17
2018-01-12T05:36:35.765Z,26.60
2018-01-12T05:39:05.761Z,25.88
2018-01-12T05:41:36.453Z,28.33
2018-01-12T05:44:06.498Z,26.80
2018-01-12T05:46:39.050Z,28.50
2018-01-12T05:49:08.065Z,27.30
2018-01-12T05:51:38.781Z,26.20
2018-01-12T05:54:10.254Z,26.60
2018-01-12T05:56:39.033Z,26.30
2018-01-12T05:59:09.049Z,27.27
2018-01-12T06:01:48.781Z,28.20
2018-01-12T06:04:33.813Z,27.13
2018-01-12T06:07:01.834Z,25.12
2018-01-12T06:09:29.853Z,27.40
2018-01-12T06:11:58.897Z,26.80
2018-01-12T06:14:29.621Z,27.67
2018-01-12T06:16:57.672Z,27.83
2018-01-12T06:19:29.337Z,26.00
2018-01-12T06:22:01.021Z,29.55
2018-01-12T06:24:29.041Z,26.83
2018-01-12T06:27:03.865Z,26.92
2018-01-12T06:29:32.889Z,27.25
2018-01-12T06:32:02.910Z,27.85
2018-01-12T06:34:30.933Z,28.23
2018-01-12T06:36:58.953Z,28.02
2018-01-12T06:39:26.986Z,29.67
2018-01-12T06:41:56.921Z,29.30
2018-01-12T06:44:29.921Z,26.15
2018-01-12T06:46:57.941Z,25.75
2018-01-12T06:49:30.457Z,27.67
2018-01-12T06:51:59.449Z,28.08
2018-01-12T06:54:33.973Z,27.30
2018-01-12T06:57:03.713Z,28.90
2018-01-12T06:59:33.721Z,28.85
2018-01-12T07:02:02.513Z,30.42
2018-01-12T07:04:30.521Z,31.15
2018-01-12T07:06:58.565Z,28.45
2018-01-12T07:09:28.333Z,29.15
2018-01-12T07:11:57.333Z,30.33
2018-01-12T07:14:27.337Z,29.17
2018-01-12T07:16:56.336Z,31.55
2018-01-12T07:19:24.396Z,30.70
2018-01-12T07:24:59.541Z,38.50
2018-01-12T07:27:33.132Z,34.53
2018-01-12T07:30:03.105Z,33.10
2018-01-12T07:32:32.796Z,30.88
2018-01-12T07:35:02.620Z,31.35
2018-01-12T07:37:30.636Z,33.38
2018-01-12T07:39:59.656Z,30.35
2018-01-12T07:42:27.684Z,31.37
2018-01-12T07:44:58.676Z,33.00
2018-01-12T07:47:28.696Z,32.13
2018-01-12T07:50:00.536Z,31.62
2018-01-12T07:52:33.344Z,31.52
2018-01-12T07:55:02.133Z,31.25
2018-01-12T07:57:30.149Z,30.95
2018-01-12T07:59:58.188Z,32.58
2018-01-12T08:02:32.692Z,32.60
2018-01-12T08:05:10.040Z,32.70
2018-01-12T08:07:38.961Z,32.42
2018-01-12T08:10:07.884Z,30.50
2018-01-12T08:12:35.900Z,30.10
2018-01-12T08:15:09.540Z,30.58
2018-01-12T08:17:38.436Z,31.20
2018-01-12T08:20:06.468Z,30.73
2018-01-12T08:22:35.541Z,30.10
2018-01-12T08:25:26.069Z,30.30
2018-01-12T08:27:59.059Z,27.75
2018-01-12T08:30:41.340Z,28.83
2018-01-12T08:33:16.567Z,28.25
2018-01-12T08:35:51.144Z,27.95
2018-01-12T08:38:39.908Z,30.60
2018-01-12T08:41:26.747Z,28.55
2018-01-12T08:44:01.176Z,28.65
2018-01-12T08:46:40.564Z,29.80
2018-01-12T08:49:13.144Z,26.35
2018-01-12T08:51:42.088Z,29.52
2018-01-12T08:54:12.132Z,28.48
2018-01-12T08:56:53.459Z,27.77
2018-01-12T08:59:29.220Z,28.42
2018-01-12T09:01:57.264Z,24.63
2018-01-12T09:04:30.619Z,26.25
2018-01-12T09:09:56.547Z,26.40
2018-01-12T09:12:30.552Z,26.42
2018-01-12T09:15:13.781Z,27.85
2018-01-12T09:17:47.728Z,27.75
2018-01-12T09:20:17.423Z,27.77
2018-01-12T09:22:58.030Z,26.42
2018-01-12T09:25:35.520Z,26.33
2018-01-12T09:28:07.424Z,25.95
2018-01-12T09:30:41.792Z,25.73
2018-01-12T09:33:09.859Z,25.20
2018-01-12T09:35:41.351Z,27.83
2018-01-12T09:38:21.935Z,25.40
2018-01-12T09:40:54.755Z,26.58
2018-01-12T09:43:30.129Z,26.25
2018-01-12T09:46:10.823Z,24.27
2018-01-12T09:48:38.847Z,24.27
2018-01-12T09:51:18.495Z,23.85
2018-01-12T09:54:06.647Z,24.30
2018-01-12T09:56:40.431Z,24.00
2018-01-12T09:59:12.364Z,24.27
2018-01-12T10:01:53.027Z,23.87
2018-01-12T10:04:35.544Z,24.48
2018-01-12T10:07:19.111Z,25.00
2018-01-12T10:09:59.067Z,26.10
2018-01-12T10:12:27.979Z,25.98
2018-01-12T10:14:55.999Z,26.65
2018-01-12T10:22:58.626Z,29.58
2018-01-12T10:25:30.323Z,28.00
2018-01-12T10:28:03.270Z,26.62
2018-01-12T10:30:54.787Z,25.02
2018-01-12T10:33:42.695Z,26.85
2018-01-12T10:39:36.191Z,30.58
2018-01-12T10:42:05.131Z,26.62
2018-01-12T10:44:35.059Z,24.33
2018-01-12T10:47:18.619Z,23.60
2018-01-12T10:49:55.750Z,23.67
2018-01-12T10:52:48.158Z,24.33
2018-01-12T10:55:18.083Z,23.92
2018-01-12T10:57:46.103Z,21.98
2018-01-12T11:00:25.019Z,24.48
2018-01-12T11:02:55.591Z,22.95
2018-01-12T11:05:31.355Z,22.15
2018-01-12T11:07:59.375Z,24.27
2018-01-12T11:10:40.387Z,24.55
2018-01-12T11:13:18.327Z,23.33
2018-01-12T11:16:06.255Z,23.65
2018-01-12T11:18:35.171Z,22.13
2018-01-12T11:21:03.191Z,22.85
2018-01-12T11:23:32.134Z,22.52
2018-01-12T11:26:00.163Z,21.27
2018-01-12T11:28:30.079Z,22.95
2018-01-12T11:30:58.096Z,21.52
2018-01-12T11:33:26.135Z,21.62
2018-01-12T11:36:04.026Z,23.05
2018-01-12T11:38:50.695Z,20.98
2018-01-12T11:41:19.482Z,22.62
2018-01-12T11:43:48.271Z,23.27
2018-01-12T11:46:17.058Z,23.10
2018-01-12T11:48:57.479Z,23.48
2018-01-12T11:51:27.408Z,21.33
2018-01-12T11:54:19.354Z,24.27
2018-01-12T11:57:07.315Z,22.08
2018-01-12T11:59:40.338Z,22.23
2018-01-12T12:02:09.346Z,24.23
2018-01-12T12:04:41.526Z,22.45
2018-01-12T12:07:15.306Z,25.70
2018-01-12T12:09:43.350Z,24.25
2018-01-12T12:12:13.310Z,26.55
2018-01-12T12:14:46.106Z,21.98
2018-01-12T12:17:14.150Z,23.70
2018-01-12T12:19:44.098Z,23.52
2018-01-12T12:22:20.186Z,25.45
2018-01-12T12:24:48.222Z,23.50
2018-01-12T12:27:17.934Z,23.48
2018-01-12T12:29:49.798Z,24.92
2018-01-12T12:32:22.762Z,25.88
2018-01-12T12:34:53.482Z,22.65
2018-01-12T12:37:22.490Z,24.63
2018-01-12T12:40:04.414Z,25.35
2018-01-12T12:42:34.375Z,25.08
2018-01-12T12:45:03.385Z,25.37
2018-01-12T12:47:31.406Z,24.67
2018-01-12T12:50:00.370Z,24.40
2018-01-12T12:52:28.406Z,25.42
2018-01-12T12:54:57.418Z,26.10
2018-01-12T12:57:32.910Z,27.33
2018-01-12T13:00:14.497Z,24.00
2018-01-12T13:02:43.523Z,24.40
2018-01-12T13:05:24.978Z,26.52
2018-01-12T13:07:58.197Z,25.33
2018-01-12T13:10:29.994Z,27.05
2018-01-12T13:12:58.014Z,28.17
2018-01-12T13:15:26.050Z,27.27
2018-01-12T13:17:55.007Z,25.35
2018-01-12T13:20:26.342Z,27.62
2018-01-12T13:22:58.266Z,27.62
2018-01-12T13:25:27.014Z,25.25
2018-01-12T13:27:56.794Z,24.27
2018-01-12T13:30:24.805Z,25.52
2018-01-12T13:32:58.089Z,24.80
2018-01-12T13:35:35.570Z,27.15
2018-01-12T13:38:04.394Z,27.45
2018-01-12T13:40:33.330Z,22.60
2018-01-12T13:43:05.645Z,24.67
2018-01-12T13:45:38.390Z,23.00
2018-01-12T13:48:07.374Z,22.17
2018-01-12T13:50:39.158Z,25.40
2018-01-12T13:53:11.310Z,25.50
2018-01-12T13:55:40.094Z,25.33
2018-01-12T13:58:08.890Z,26.00
2018-01-12T14:00:40.242Z,27.25
2018-01-12T14:03:09.205Z,25.30
2018-01-12T14:05:37.194Z,25.42
2018-01-12T14:08:05.993Z,27.75
2018-01-12T14:10:39.214Z,24.85
2018-01-12T14:13:09.158Z,25.50
2018-01-12T14:15:39.194Z,27.35
2018-01-12T14:18:08.198Z,26.40
2018-01-12T14:20:37.174Z,26.42
2018-01-12T14:23:10.565Z,25.02
2018-01-12T14:25:38.598Z,28.62
2018-01-12T14:28:13.430Z,25.50
2018-01-12T14:30:42.452Z,25.45
2018-01-12T14:33:11.493Z,23.67
2018-01-12T14:35:39.522Z,25.00
2018-01-12T14:38:07.558Z,24.27
2018-01-12T14:40:35.593Z,26.87
2018-01-12T14:43:05.574Z,25.35
2018-01-12T14:45:40.197Z,27.62
2018-01-12T14:48:08.237Z,26.90
2018-01-12T14:50:39.885Z,28.12
2018-01-12T14:53:09.914Z,28.20
2018-01-12T14:55:45.330Z,27.37
2018-01-12T14:58:18.173Z,27.50
2018-01-12T15:00:50.814Z,27.62
2018-01-12T15:03:18.846Z,27.02
2018-01-12T15:05:47.809Z,28.50
2018-01-12T15:08:16.794Z,30.83
2018-01-12T15:10:44.818Z,26.73
2018-01-12T15:13:13.774Z,29.83
2018-01-12T15:15:44.910Z,27.25
2018-01-12T15:18:12.937Z,26.75
2018-01-12T15:20:46.685Z,27.65
2018-01-12T15:23:37.842Z,27.60
2018-01-12T15:26:12.370Z,26.17
2018-01-12T15:28:43.998Z,28.52
2018-01-12T15:31:12.018Z,27.33
2018-01-12T15:33:40.934Z,27.25
2018-01-12T15:36:17.250Z,28.95
2018-01-12T15:39:05.274Z,27.45
2018-01-12T15:41:39.906Z,24.70
2018-01-12T15:44:21.570Z,25.65
2018-01-12T15:46:51.241Z,23.20
2018-01-12T15:49:19.262Z,25.48
2018-01-12T15:51:47.277Z,22.62
2018-01-12T15:54:18.953Z,24.25
2018-01-12T15:56:46.966Z,23.35
2018-01-12T15:59:15.002Z,23.70
2018-01-12T16:01:48.686Z,23.48
2018-01-12T16:04:21.178Z,22.80
2018-01-12T16:06:51.897Z,21.92
2018-01-12T16:09:19.921Z,23.40
2018-01-12T16:11:47.949Z,22.02
2018-01-12T16:14:19.796Z,20.88
2018-01-12T16:16:57.005Z,21.15
2018-01-12T16:19:28.417Z,22.85
2018-01-12T16:22:00.997Z,22.48
2018-01-12T16:24:29.909Z,16.75
2018-01-12T16:27:04.685Z,16.98
2018-01-12T16:29:36.786Z,16.35
2018-01-12T16:32:06.797Z,16.90
2018-01-12T16:34:40.466Z,18.00
2018-01-12T16:37:30.645Z,19.83
2018-01-12T16:40:06.234Z,20.60
2018-01-12T16:42:36.258Z,20.73
2018-01-12T16:45:24.757Z,21.42
2018-01-12T16:48:06.147Z,20.42
2018-01-12T16:50:34.221Z,22.27
2018-01-12T16:53:05.305Z,23.87
2018-01-12T16:55:38.985Z,22.20
2018-01-12T16:58:07.013Z,19.95
2018-01-12T17:00:39.699Z,22.23
2018-01-12T17:03:07.729Z,23.25
2018-01-12T17:05:38.437Z,22.67
2018-01-12T17:08:27.052Z,24.70
2018-01-12T17:10:58.099Z,25.12
2018-01-12T17:13:28.773Z,26.10
2018-01-12T17:16:06.457Z,24.27
2018-01-12T17:18:35.393Z,25.83
2018-01-12T17:21:04.169Z,24.98
2018-01-12T17:23:33.957Z,25.55
2018-01-12T17:26:01.977Z,27.00
2018-01-12T17:28:30.010Z,25.37
2018-01-12T17:31:08.185Z,25.45
2018-01-12T17:33:36.217Z,25.33
2018-01-12T17:36:08.037Z,26.62
2018-01-12T17:38:39.690Z,25.10
2018-01-12T17:41:11.657Z,26.40
2018-01-12T17:43:54.093Z,24.33
2018-01-12T17:46:30.401Z,25.50
2018-01-12T17:51:53.721Z,27.77
2018-01-12T17:54:27.045Z,23.50
2018-01-12T17:59:59.653Z,27.48
2018-01-12T18:02:30.729Z,26.37
2018-01-12T18:04:59.649Z,25.10
2018-01-12T18:07:36.169Z,25.25
2018-01-12T18:10:09.273Z,22.75
2018-01-12T18:12:37.343Z,23.50
2018-01-12T18:15:15.461Z,22.98
2018-01-12T18:17:43.493Z,23.17
2018-01-12T18:20:16.217Z,21.77
2018-01-12T18:22:44.245Z,24.00
2018-01-12T18:25:15.937Z,21.73
2018-01-12T18:27:44.017Z,23.20
2018-01-12T18:30:12.076Z,22.42
2018-01-12T18:32:42.089Z,22.15
2018-01-12T18:35:10.457Z,22.77
2018-01-12T18:37:38.485Z,20.77
2018-01-12T18:40:14.494Z,21.60
2018-01-12T18:42:47.285Z,22.52
2018-01-12T18:45:21.216Z,21.33
2018-01-12T18:47:51.264Z,20.35
2018-01-12T18:50:19.304Z,23.92
2018-01-12T18:52:50.780Z,19.58
2018-01-12T18:55:20.948Z,22.37
2018-01-12T18:57:49.005Z,22.67
2018-01-12T19:00:35.664Z,20.75
2018-01-12T19:03:04.618Z,21.50
2018-01-12T19:05:40.092Z,23.67
2018-01-12T19:08:10.056Z,22.87
2018-01-12T19:10:38.085Z,24.30
2018-01-12T19:13:07.036Z,23.33
2018-01-12T19:15:46.048Z,23.87
2018-01-12T19:18:26.808Z,24.12
2018-01-12T19:21:01.771Z,26.45
2018-01-12T19:23:31.628Z,24.40
2018-01-12T19:26:17.957Z,24.33
2018-01-12T19:28:50.352Z,21.98
2018-01-12T19:31:24.732Z,22.48
2018-01-12T19:34:03.700Z,22.77
2018-01-12T19:36:32.544Z,21.58
2018-01-12T19:39:00.604Z,24.02
2018-01-12T19:41:28.648Z,24.00
2018-01-12T19:44:02.288Z,23.95
2018-01-12T19:49:29.816Z,26.67
2018-01-12T19:52:00.037Z,25.92
2018-01-12T19:54:30.872Z,28.00
2018-01-12T19:57:00.907Z,25.58
2018-01-12T19:59:34.428Z,36.70
2018-01-12T20:02:24.099Z,31.75
2018-01-12T20:04:55.052Z,38.58
2018-01-12T20:07:24.228Z,67.60
2018-01-12T20:15:17.847Z,36.38
2018-01-12T20:18:02.271Z,45.60
2018-01-12T20:23:19.024Z,35.20
2018-01-12T20:25:49.284Z,37.13
2018-01-12T20:28:34.819Z,38.13
2018-01-12T20:36:58.084Z,37.97
2018-01-12T20:42:10.780Z,37.17
2018-01-12T20:44:43.896Z,41.97
2018-01-12T20:47:14.044Z,44.85
2018-01-12T20:49:43.387Z,43.45
2018-01-12T20:52:12.403Z,39.42
2018-01-12T21:02:42.532Z,33.95
2018-01-12T21:05:11.735Z,32.25
2018-01-12T21:07:40.976Z,33.97
2018-01-12T21:10:11.156Z,35.00
2018-01-12T21:12:40.137Z,36.03
2018-01-12T21:15:18.552Z,35.40
2018-01-12T21:18:05.583Z,32.67
2018-01-12T21:20:43.810Z,36.80
2018-01-12T21:23:29.964Z,36.97
2018-01-12T21:26:10.100Z,35.28
2018-01-12T21:28:45.957Z,35.35
2018-01-12T21:31:14.276Z,33.70
2018-01-12T21:33:50.132Z,36.35
2018-01-12T21:36:33.028Z,37.65
2018-01-12T21:39:08.648Z,34.70
2018-01-12T21:41:37.879Z,38.83
2018-01-12T21:44:18.123Z,39.42
2018-01-12T21:47:04.575Z,37.95
2018-01-12T21:49:33.327Z,35.58
2018-01-12T21:52:16.103Z,35.42
2018-01-12T21:54:46.378Z,36.10
2018-01-12T21:57:18.204Z,34.22
2018-01-12T21:59:48.271Z,34.47
2018-01-12T22:02:33.991Z,34.60
2018-01-12T22:05:03.180Z,34.97
2018-01-12T22:07:34.741Z,37.92
2018-01-12T22:10:15.755Z,42.72
2018-01-12T22:12:48.884Z,41.20
2018-01-12T22:15:31.955Z,36.72
2018-01-12T22:18:05.464Z,38.88
2018-01-12T22:20:37.031Z,36.70
2018-01-12T22:23:10.847Z,37.00
2018-01-12T22:25:50.471Z,34.55
2018-01-12T22:28:18.563Z,32.03
2018-01-12T22:30:46.839Z,29.63
2018-01-12T22:33:24.683Z,31.85
2018-01-12T22:36:07.223Z,33.63
2018-01-12T22:38:48.919Z,34.13
2018-01-12T22:41:39.067Z,34.80
2018-01-12T22:44:16.079Z,34.20
2018-01-12T22:46:54.758Z,35.53
2018-01-12T22:49:32.135Z,33.30
2018-01-12T22:52:05.175Z,33.85
2018-01-12T22:54:35.275Z,34.95
2018-01-12T22:57:09.095Z,34.75
2018-01-12T22:59:41.847Z,32.95
2018-01-12T23:02:14.983Z,33.83
2018-01-12T23:04:51.337Z,33.58
2018-01-12T23:07:31.007Z,34.90
2018-01-12T23:10:02.039Z,32.80
2018-01-12T23:12:33.807Z,31.50
2018-01-12T23:15:01.919Z,31.23
2018-01-12T23:17:29.967Z,33.90
2018-01-12T23:20:03.867Z,32.58
2018-01-12T23:22:32.555Z,33.92
2018-01-12T23:25:12.675Z,35.03
2018-01-12T23:27:41.717Z,36.30
2018-01-12T23:30:15.423Z,32.47
2018-01-12T23:32:44.467Z,33.45
2018-01-12T23:35:20.451Z,34.50
2018-01-12T23:37:49.979Z,38.38
2018-01-12T23:40:19.859Z,37.08
2018-01-12T23:45:30.850Z,34.72
2018-01-12T23:50:44.512Z,35.30
2018-01-12T23:53:20.175Z,37.67
2018-01-12T23:55:53.200Z,33.28
2018-01-12T23:58:21.459Z,37.42
